• Join FlightAware (Why Join?)
  • Login
  • US Flag 
01:44AM EDT


 

Airport Tracker/Info


-or-


 

Live Flight TrackerFlight Track Log ✈ JBU917 ✈ 20-Apr-2013 ✈ KJFK - KORD

Flight Track Log - Related Links

Times and Time Zones

All times are in EDT time to prevent confusion due to time zone crossing. See the JBU917 flight status page for this flight to view local times or setup timezone preferences in your user account.

Time Position Orientation Groundspeed Altitude Reporting Facility
EDT Latitude Longitude Course Direction KTS MPH feet Rate Location/Type
04:07PM 40.6167 -73.8667 304° West 191 220 2,400  Level New York TRACON
04:08PM 40.5833 -73.8000 123° Southeast 245 282 5,200 2,520 Climbing New York TRACON
04:09PM 40.8465 -74.1762 304° West  Level FlightAware Approximate
04:09PM 40.5833 -73.7167 90° East 267 307 7,500  Level New York TRACON
04:10PM 40.9019 -74.2811 306° West  Level FlightAware Approximate
04:10PM 40.6167 -73.6000 69° East 322 371 10,000  Level New York TRACON
04:11PM 40.9443 -74.3589 306° West  Level FlightAware Approximate
04:11PM 40.7000 -73.5333 31° Northeast 364 419 10,900  Level New York TRACON
04:12PM 40.9907 -74.4314 304° West  Level FlightAware Approximate
04:12PM 40.7833 -73.5667 343° North 359 413 13,300  Level New York TRACON
04:13PM 41.0359 -74.5051 304° West  Level FlightAware Approximate
04:13PM 40.9000 -73.6167 342° North 354 407 15,900  Level New York TRACON
04:15PM 41.0053 -73.7544 315° West 336 387 17,100 420 Climbing New York Center
04:16PM 41.0236 -73.8486 284° West 313 360 17,100  Level New York Center
04:17PM 41.0411 -73.9706 281° West 302 348 17,100 600 Level New York Center
04:18PM 41.0567 -74.0842 280° West 302 348 18,400 1,440 Climbing New York Center
04:19PM 41.0747 -74.1814 284° West 307 353 20,000 1,740 Climbing New York Center
04:20PM 41.0839 -74.2975 276° West 307 353 21,900 1,800 Climbing New York Center
04:21PM 41.1011 -74.4167 281° West 319 367 23,600 1,500 Climbing New York Center
04:22PM 41.1158 -74.5414 279° West 331 381 25,000 660 Climbing New York Center
04:23PM 41.1328 -74.6636 280° West 336 387 25,000  Level New York Center
04:24PM 41.1725 -74.7817 294° West 336 387 25,000 300 Level New York Center
04:25PM 41.2325 -74.9147 301° West 369 425 25,700 960 Climbing New York Center
04:26PM 41.2844 -75.0367 300° West 381 438 27,000 1,140 Climbing New York Center
04:27PM 41.3383 -75.1617 300° West 386 444 28,000 1,200 Climbing New York Center
04:28PM 41.3919 -75.2869 300° West 386 444 29,400 1,200 Climbing New York Center
04:29PM 41.4433 -75.4092 299° West 386 444 30,500 960 Climbing New York Center
04:30PM 41.4903 -75.5400 296° West 386 444 31,400 960 Climbing New York Center
04:31PM 41.5250 -75.6589 291° West 380 437 32,500 1,200 Climbing New York Center
04:32PM 41.5672 -75.7950 293° West 375 432 33,800 720 Climbing New York Center
04:33PM 41.6014 -75.9225 290° West 370 426 34,000 60 Climbing New York Center
04:34PM 41.6392 -76.0531 291° West 375 432 34,000  Level New York Center
04:35PM 41.6750 -76.1864 290° West 380 437 34,000  Level New York Center
04:37PM 41.7333 -76.3922 291° West 388 447 34,000  Level Cleveland Center
04:38PM 41.7694 -76.5264 290° West 388 447 34,000  Level Cleveland Center
04:39PM 41.8097 -76.6658 291° West 393 452 34,000  Level Cleveland Center
04:40PM 41.8478 -76.8003 291° West 393 452 34,000  Level Cleveland Center
04:41PM 41.8856 -76.9375 290° West 398 458 34,000  Level Cleveland Center
04:42PM 41.9233 -77.0778 290° West 398 458 34,000  Level Cleveland Center
04:43PM 41.9586 -77.2156 289° West 398 458 34,000  Level Cleveland Center
04:44PM 41.9981 -77.3503 292° West 398 458 34,000  Level Cleveland Center
04:45PM 42.0331 -77.4856 289° West 398 458 34,000  Level Cleveland Center
04:46PM 42.0678 -77.6264 288° West 398 458 34,000  Level Cleveland Center
04:47PM 42.1067 -77.7619 291° West 398 458 34,000  Level Cleveland Center
04:48PM 42.1414 -77.8975 289° West 398 458 34,000  Level Cleveland Center
04:49PM 42.1758 -78.0364 289° West 398 458 34,000  Level Cleveland Center
04:50PM 42.2142 -78.1750 291° West 398 458 34,000  Level Cleveland Center
04:51PM 42.2503 -78.3111 290° West 398 458 34,000  Level Cleveland Center
04:52PM 42.2861 -78.4500 289° West 398 458 34,000  Level Cleveland Center
04:53PM 42.3200 -78.5950 288° West 403 464 34,000  Level Cleveland Center
04:54PM 42.3578 -78.7342 290° West 403 464 34,000  Level Cleveland Center
04:55PM 42.3933 -78.8767 289° West 403 464 34,000  Level Cleveland Center
04:56PM 42.4289 -79.0306 287° West 398 458 34,000  Level Cleveland Center
04:57PM 42.4661 -79.1731 290° West 398 458 34,000  Level Cleveland Center
04:58PM 42.4969 -79.3161 286° West 398 458 34,000  Level Cleveland Center
04:59PM 42.5028 -79.4594 273° West 393 452 34,000  Level Cleveland Center
05:00PM 42.5103 -79.6114 274° West 393 452 34,000  Level Cleveland Center
05:01PM 42.5156 -79.7578 273° West 393 452 34,000  Level Cleveland Center
05:02PM 42.5250 -79.9069 275° West 393 452 34,000  Level Cleveland Center
05:03PM 42.5258 -80.0564 270° West 393 452 34,000  Level Cleveland Center
05:04PM 42.5325 -80.2028 274° West 393 452 34,000  Level Cleveland Center
05:05PM 42.5392 -80.3494 274° West 393 452 34,000  Level Cleveland Center
05:06PM 42.5436 -80.4931 272° West 393 452 34,000  Level Cleveland Center
05:07PM 42.5519 -80.6394 274° West 388 447 34,000  Level Cleveland Center
05:08PM 42.5558 -80.7861 272° West 388 447 34,000  Level Cleveland Center
05:09PM 42.5617 -80.9356 273° West 388 447 34,000  Level Cleveland Center
05:10PM 42.5656 -81.0653 272° West 393 452 34,000  Level Cleveland Center
05:11PM 42.5711 -81.2147 273° West 393 452 34,000  Level Cleveland Center
05:12PM 42.5764 -81.3642 273° West 393 452 34,000  Level Cleveland Center
05:13PM 42.5919 -81.5111 278° West 398 458 34,000  Level Cleveland Center
05:14PM 42.6178 -81.6553 284° West 403 464 34,000  Level Cleveland Center
05:15PM 42.6475 -81.8167 284° West 397 457 34,000  Level Cleveland Center
05:16PM 42.6728 -81.9669 283° West 397 457 34,000  Level Cleveland Center
05:17PM 42.6981 -82.1144 283° West 403 464 34,000  Level Cleveland Center
05:18PM 42.7169 -82.2617 280° West 403 464 34,000  Level Cleveland Center
05:19PM 42.7269 -82.4119 275° West 403 464 34,000  Level Cleveland Center
05:20PM 42.7392 -82.5592 276° West 397 457 34,000  Level Cleveland Center
05:21PM 42.7533 -82.7039 278° West 392 451 34,000  Level Cleveland Center
05:22PM 42.7631 -82.8511 275° West 392 451 34,000  Level Cleveland Center
05:23PM 42.7747 -82.9958 276° West 387 445 34,000  Level Cleveland Center
05:24PM 42.7842 -83.1406 275° West 387 445 34,000  Level Cleveland Center
05:25PM 42.7953 -83.2856 276° West 387 445 34,000  Level Cleveland Center
05:26PM 42.8064 -83.4331 276° West 387 445 34,000  Level Cleveland Center
05:27PM 42.8153 -83.5750 275° West 387 445 34,000  Level Cleveland Center
05:28PM 42.8261 -83.7200 276° West 387 445 34,000  Level Cleveland Center
05:29PM 42.8344 -83.8647 275° West 387 445 34,000  Level Cleveland Center
05:30PM 42.8447 -84.0097 276° West 387 445 34,000  Level Cleveland Center
05:31PM 42.8550 -84.1578 275° West 387 445 34,000 -420 Level Cleveland Center
05:33PM 42.8736 -84.4214 276° West 384 442 32,900 -660 Descending Chicago Center
05:34PM 42.8831 -84.5925 274° West 379 436 32,000 -480 Descending Chicago Center
05:35PM 42.8681 -84.7375 262° West 386 444 32,000  Level Chicago Center
05:36PM 42.8533 -84.8847 262° West 390 449 32,000  Level Chicago Center
05:37PM 42.8381 -85.0319 262° West 392 451 32,000  Level Chicago Center
05:38PM 42.8211 -85.1792 261° West 395 455 32,000  Level Chicago Center
05:39PM 42.8053 -85.3264 262° West 394 453 32,000 -300 Level Chicago Center
05:40PM 42.7886 -85.4736 261° West 393 452 31,500 -1,260 Descending Chicago Center
05:41PM 42.7650 -85.6161 257° West 388 447 29,500 -1,980 Descending Chicago Center
05:42PM 42.7400 -85.7533 256° West 376 433 27,500 -2,100 Descending Chicago Center
05:43PM 42.7117 -85.9128 256° West 361 415 25,200 -2,100 Descending Chicago Center
05:44PM 42.6867 -86.0514 256° West 372 428 23,200 -1,920 Descending Chicago Center
05:45PM 42.6622 -86.1844 256° West 365 420 21,300 -1,860 Descending Chicago Center
05:46PM 42.6375 -86.3156 256° West 360 414 19,400 -1,740 Descending Chicago Center
05:47PM 42.6133 -86.4392 255° West 343 395 17,800 -1,440 Descending Chicago Center
05:48PM 42.5900 -86.5661 256° West 346 398 16,500 -1,380 Descending Chicago Center
05:49PM 42.5669 -86.6900 256° West 340 391 15,000 -1,440 Descending Chicago Center
05:50PM 42.5372 -86.8128 252° West 343 395 13,600 -1,440 Descending Chicago Center
05:51PM 42.5050 -86.9314 250° West 338 389 12,100 -1,620 Descending Chicago Center
05:52PM 42.4656 -87.0706 249° West 331 381 10,300 -1,020 Descending Chicago Center
05:53PM 42.4344 -87.1839 250° West 325 374 10,000 -600 Descending Chicago Center
05:54PM 42.4089 -87.2847 251° West 289 333 9,100 -1,260 Descending Chicago Center
05:55PM 42.3814 -87.3761 248° West 266 306 7,500 -1,500 Descending Chicago Center
05:56PM 42.3308 -87.4467 226° Southwest 264 304 6,100 -780 Descending Chicago Center
05:57PM 42.2653 -87.4844 203° Southwest 256 295 6,000 -540 Descending Chicago Center
05:58PM 42.1992 -87.5214 202° Southwest 257 296 5,100 -540 Descending Chicago Center
05:59PM 42.1328 -87.5589 203° Southwest 258 297 4,900 -300 Descending Chicago Center
06:00PM 42.0667 -87.6000 205° Southwest 257 296 4,600 -480 Descending Chicago TRACON
06:01PM 42.0333 -87.6500 228° Southwest 231 266 4,100 -1,020 Descending Chicago TRACON
06:02PM 42.0000 -87.7167 236° Southwest 212 244 2,700 -960 Descending Chicago TRACON
06:03PM 42.0000 -87.7833 270° West 187 215 2,200 -600 Descending Chicago TRACON
06:04PM 42.0000 -87.8500 270° West 162 186 1,500 -720 Descending Chicago TRACON
06:06PM 41.9667 -87.9000 255° West  Level FlightAware Approximate